createdAt,value
2019-02-05T00:21:52.053Z,2.60
2019-02-05T00:26:55.182Z,2.70
2019-02-05T00:31:43.968Z,2.70
2019-02-05T00:36:43.429Z,2.60
2019-02-05T00:41:32.475Z,2.60
2019-02-05T00:46:29.994Z,2.60
2019-02-05T00:51:20.335Z,2.60
2019-02-05T00:56:25.913Z,2.60
2019-02-05T01:01:16.863Z,2.70
2019-02-05T01:06:16.942Z,2.70
2019-02-05T01:11:04.164Z,2.70
2019-02-05T01:15:59.369Z,2.70
2019-02-05T01:20:49.932Z,2.70
2019-02-05T01:25:38.969Z,2.70
2019-02-05T01:30:28.931Z,2.60
2019-02-05T01:35:19.806Z,2.60
2019-02-05T01:40:12.963Z,2.60
2019-02-05T01:45:22.432Z,2.50
2019-02-05T01:50:13.309Z,2.50
2019-02-05T01:55:18.871Z,2.50
2019-02-05T02:00:07.670Z,2.50
2019-02-05T02:05:58.230Z,2.40
2019-02-05T02:11:07.957Z,2.40
2019-02-05T02:16:11.486Z,2.40
2019-02-05T02:20:57.633Z,2.40
2019-02-05T02:25:48.846Z,2.40
2019-02-05T02:30:40.547Z,2.40
2019-02-05T02:35:34.461Z,2.40
2019-02-05T02:40:23.560Z,2.30
2019-02-05T02:45:15.453Z,2.40
2019-02-05T02:50:07.461Z,2.30
2019-02-05T02:54:59.405Z,2.30
2019-02-05T02:59:51.453Z,2.30
2019-02-05T03:04:43.495Z,2.30
2019-02-05T03:09:35.475Z,2.30
2019-02-05T03:14:27.457Z,2.30
2019-02-05T03:19:19.167Z,2.30
2019-02-05T03:24:10.948Z,2.30
2019-02-05T03:29:03.075Z,2.30
2019-02-05T03:33:55.113Z,2.40
2019-02-05T03:38:47.068Z,2.40
2019-02-05T03:43:40.821Z,2.40
2019-02-05T03:48:42.485Z,2.40
2019-02-05T03:53:50.081Z,2.40
2019-02-05T03:58:55.828Z,2.40
2019-02-05T04:03:43.768Z,2.40
2019-02-05T04:08:35.988Z,2.40
2019-02-05T04:13:25.702Z,2.40
2019-02-05T04:18:27.890Z,2.40
2019-02-05T04:23:17.700Z,2.40
2019-02-05T04:28:23.323Z,2.40
2019-02-05T04:33:10.945Z,2.40
2019-02-05T04:38:17.014Z,2.40
2019-02-05T04:43:21.279Z,2.40
2019-02-05T04:48:34.036Z,2.40
2019-02-05T04:53:36.215Z,2.40
2019-02-05T04:58:38.958Z,2.40
2019-02-05T05:03:27.130Z,2.40
2019-02-05T05:08:18.139Z,2.40
2019-02-05T05:13:11.651Z,2.50
2019-02-05T05:18:02.924Z,2.50
2019-02-05T05:22:54.187Z,2.50
2019-02-05T05:27:46.224Z,2.50
2019-02-05T05:32:37.934Z,2.50
2019-02-05T05:37:31.651Z,2.50
2019-02-05T05:42:24.862Z,2.50
2019-02-05T05:47:18.234Z,2.50
2019-02-05T05:52:09.342Z,2.50
2019-02-05T05:57:03.217Z,2.60
2019-02-05T06:01:57.424Z,2.60
2019-02-05T06:06:50.712Z,2.60
2019-02-05T06:11:41.677Z,2.60
2019-02-05T06:16:33.654Z,2.60
2019-02-05T06:21:27.703Z,2.60
2019-02-05T06:26:21.269Z,2.60
2019-02-05T06:31:14.666Z,2.60
2019-02-05T06:36:08.370Z,2.70
2019-02-05T06:41:01.783Z,2.70
2019-02-05T06:45:53.209Z,2.70
2019-02-05T06:50:45.113Z,2.70
2019-02-05T06:55:34.221Z,2.70
2019-02-05T07:00:24.705Z,2.80
2019-02-05T07:05:16.874Z,2.80
2019-02-05T07:10:08.097Z,2.80
2019-02-05T07:15:00.396Z,2.80
2019-02-05T07:19:49.740Z,2.80
2019-02-05T07:24:37.695Z,2.80
2019-02-05T07:29:27.362Z,2.80
2019-02-05T07:34:22.388Z,2.90
2019-02-05T07:39:13.726Z,2.90
2019-02-05T07:44:05.799Z,2.90
2019-02-05T07:48:59.436Z,2.90
2019-02-05T07:53:49.247Z,2.90
2019-02-05T07:58:38.603Z,2.90
2019-02-05T08:03:33.434Z,2.90
2019-02-05T08:08:25.207Z,2.90
2019-02-05T08:13:15.366Z,2.90
2019-02-05T08:18:05.355Z,2.90
2019-02-05T08:22:56.056Z,3.00
2019-02-05T08:27:47.917Z,2.90
2019-02-05T08:32:40.248Z,3.00
2019-02-05T08:37:31.617Z,3.00
2019-02-05T08:42:23.385Z,3.00
2019-02-05T08:47:15.160Z,3.00
2019-02-05T08:52:06.918Z,3.00
2019-02-05T08:56:59.370Z,3.00
2019-02-05T09:01:51.513Z,3.10
2019-02-05T09:06:43.430Z,3.10
2019-02-05T09:11:35.413Z,3.20
2019-02-05T09:16:28.108Z,3.20
2019-02-05T09:21:20.607Z,3.30
2019-02-05T09:26:12.632Z,3.30
2019-02-05T09:31:04.501Z,3.30
2019-02-05T09:35:56.586Z,3.30
2019-02-05T09:40:49.118Z,3.40
2019-02-05T09:45:42.809Z,3.40
2019-02-05T09:50:45.202Z,3.40
2019-02-05T09:55:37.601Z,3.40
2019-02-05T10:00:29.379Z,3.50
2019-02-05T10:05:21.859Z,3.50
2019-02-05T10:10:15.687Z,3.50
2019-02-05T10:14:27.224Z,3.60
2019-02-05T10:19:19.357Z,3.60
2019-02-05T10:24:11.122Z,3.60
2019-02-05T10:29:03.242Z,3.70
2019-02-05T10:33:56.364Z,3.70
2019-02-05T10:38:49.767Z,3.80
2019-02-05T10:43:41.245Z,3.90
2019-02-05T10:48:33.105Z,3.90
2019-02-05T10:53:25.158Z,4.00
2019-02-05T10:58:17.574Z,4.00
2019-02-05T11:03:10.130Z,4.00
2019-02-05T11:08:01.962Z,4.10
2019-02-05T11:12:54.158Z,4.30
2019-02-05T11:17:45.851Z,4.30
2019-02-05T11:22:38.159Z,4.30
2019-02-05T11:27:30.326Z,4.30
2019-02-05T11:32:22.239Z,4.40
2019-02-05T11:37:14.256Z,4.40
2019-02-05T11:42:06.289Z,4.30
2019-02-05T11:46:58.695Z,4.30
2019-02-05T11:51:50.679Z,4.30
2019-02-05T11:56:41.983Z,4.40
2019-02-05T12:01:39.836Z,4.50
2019-02-05T12:06:30.043Z,4.40
2019-02-05T12:11:21.986Z,4.50
2019-02-05T12:16:11.325Z,4.50
2019-02-05T12:21:01.661Z,4.60
2019-02-05T12:25:51.161Z,4.60
2019-02-05T12:30:46.118Z,4.60
2019-02-05T12:35:35.186Z,4.60
2019-02-05T12:40:27.755Z,4.70
2019-02-05T12:45:19.889Z,4.70
2019-02-05T12:50:10.527Z,4.70
2019-02-05T12:55:13.305Z,4.70
2019-02-05T13:00:05.423Z,4.70
2019-02-05T13:04:57.373Z,4.70
2019-02-05T13:09:46.888Z,4.70
2019-02-05T13:14:38.320Z,4.70
2019-02-05T13:19:29.469Z,4.80
2019-02-05T13:24:20.406Z,4.80
2019-02-05T13:29:12.601Z,4.80
2019-02-05T13:34:01.678Z,4.80
2019-02-05T13:38:51.751Z,4.80
2019-02-05T13:43:43.369Z,4.80
2019-02-05T13:48:34.522Z,4.80
2019-02-05T13:53:24.973Z,4.90
2019-02-05T13:58:14.848Z,4.90
2019-02-05T14:03:04.657Z,4.90
2019-02-05T14:07:55.432Z,4.90
2019-02-05T14:12:44.813Z,5.00
2019-02-05T14:17:35.064Z,5.00
2019-02-05T14:22:25.157Z,5.00
2019-02-05T14:27:15.999Z,5.00
2019-02-05T14:32:05.612Z,5.10
2019-02-05T14:36:55.542Z,5.10
2019-02-05T14:41:47.236Z,5.10
2019-02-05T14:46:39.178Z,5.10
2019-02-05T14:51:31.714Z,5.20
2019-02-05T14:56:21.149Z,5.20
2019-02-05T15:01:12.819Z,5.20
2019-02-05T15:06:02.090Z,5.20
2019-02-05T15:10:52.264Z,5.20
2019-02-05T15:15:44.636Z,5.20
2019-02-05T15:20:34.194Z,5.30
2019-02-05T15:25:24.169Z,5.30
2019-02-05T15:30:16.449Z,5.30
2019-02-05T15:35:09.969Z,5.30
2019-02-05T15:40:01.158Z,5.30
2019-02-05T15:44:52.398Z,5.30
2019-02-05T15:49:52.211Z,5.30
2019-02-05T15:54:40.100Z,5.30
2019-02-05T15:59:31.884Z,5.30
2019-02-05T16:04:38.146Z,5.30
2019-02-05T16:09:33.622Z,5.30
2019-02-05T16:14:23.361Z,5.30
2019-02-05T16:19:14.450Z,5.20
2019-02-05T16:24:04.699Z,5.20
2019-02-05T16:28:54.894Z,5.20
2019-02-05T16:33:47.729Z,5.20
2019-02-05T16:38:38.756Z,5.20
2019-02-05T16:43:36.673Z,5.20
2019-02-05T16:48:24.649Z,5.20
2019-02-05T16:53:31.833Z,5.20
2019-02-05T16:58:20.721Z,5.10
2019-02-05T17:03:12.963Z,5.10
2019-02-05T17:10:22.001Z,5.10
2019-02-05T17:15:05.965Z,5.10
2019-02-05T17:19:54.505Z,5.10
2019-02-05T17:24:43.791Z,5.10
2019-02-05T17:29:32.625Z,5.10
2019-02-05T17:34:32.421Z,5.10
2019-02-05T17:39:20.465Z,5.00
2019-02-05T17:44:11.490Z,5.00
2019-02-05T17:49:02.775Z,5.00
2019-02-05T17:53:51.567Z,5.00
2019-02-05T17:58:39.424Z,5.00
2019-02-05T18:03:30.176Z,5.00
2019-02-05T18:08:29.708Z,5.00
2019-02-05T18:13:27.612Z,5.00
2019-02-05T18:18:17.462Z,5.00
2019-02-05T18:23:07.155Z,5.00
2019-02-05T18:28:06.781Z,5.00
2019-02-05T18:33:06.233Z,5.00
2019-02-05T18:38:11.085Z,5.00
2019-02-05T18:43:00.266Z,5.10
2019-02-05T18:50:10.234Z,5.10
2019-02-05T18:54:56.025Z,5.30
2019-02-05T18:59:44.774Z,5.40
2019-02-05T19:04:42.692Z,5.40
2019-02-05T19:09:30.563Z,5.50
2019-02-05T19:14:23.126Z,5.50
2019-02-05T19:19:16.426Z,5.50
2019-02-05T19:24:15.579Z,5.40
2019-02-05T19:29:05.430Z,5.40
2019-02-05T19:39:27.324Z,5.30
2019-02-05T19:44:16.499Z,5.20
2019-02-05T19:49:07.379Z,5.00
2019-02-05T19:53:59.206Z,4.90
2019-02-05T19:58:50.752Z,4.70
2019-02-05T20:03:40.063Z,4.60
2019-02-05T20:08:32.213Z,4.50
2019-02-05T20:13:21.534Z,4.40
2019-02-05T20:18:21.320Z,4.40
2019-02-05T20:23:10.626Z,4.40
2019-02-05T20:28:16.204Z,4.30
2019-02-05T20:33:06.000Z,4.20
2019-02-05T20:37:57.826Z,4.30
2019-02-05T20:42:49.314Z,4.30
2019-02-05T20:47:38.723Z,4.30
2019-02-05T20:52:27.071Z,4.40
2019-02-05T20:57:19.043Z,4.40
2019-02-05T21:02:09.991Z,4.30
2019-02-05T21:07:01.020Z,4.30
2019-02-05T21:11:52.501Z,4.20
2019-02-05T21:16:41.302Z,4.20
2019-02-05T21:21:32.958Z,4.10
2019-02-05T21:26:24.886Z,4.10
2019-02-05T21:31:16.847Z,4.00
2019-02-05T21:36:09.287Z,4.00
2019-02-05T21:41:01.354Z,3.90
2019-02-05T21:45:54.002Z,3.80
2019-02-05T21:50:46.545Z,3.80
2019-02-05T21:55:38.427Z,3.80
2019-02-05T22:00:30.247Z,3.70
2019-02-05T22:05:22.629Z,3.70
2019-02-05T22:10:16.501Z,3.70
2019-02-05T22:15:10.462Z,3.70
2019-02-05T22:20:02.034Z,3.70
2019-02-05T22:24:53.823Z,3.60
2019-02-05T22:29:47.600Z,3.60
2019-02-05T22:34:41.067Z,3.50
2019-02-05T22:39:32.374Z,3.40
2019-02-05T22:44:24.849Z,3.30
2019-02-05T22:49:18.165Z,3.10
2019-02-05T22:54:11.496Z,3.00
2019-02-05T22:59:03.002Z,3.00
2019-02-05T23:03:54.767Z,2.90
2019-02-05T23:08:47.225Z,2.80
2019-02-05T23:13:39.625Z,2.70
2019-02-05T23:18:31.614Z,2.80
2019-02-05T23:23:23.540Z,2.80
2019-02-05T23:28:15.551Z,2.80
2019-02-05T23:33:07.466Z,2.80
2019-02-05T23:37:59.241Z,2.80
2019-02-05T23:42:51.188Z,2.80
2019-02-05T23:47:43.057Z,2.90
2019-02-05T23:52:35.287Z,2.90
2019-02-05T23:57:27.754Z,3.00
